sensor_id;sensor_type;location;lat;lon;timestamp;P1;durP1;ratioP1;P2;durP2;ratioP2
19089;SDS011;9677;50.656;13.064;2023-02-08T00:02:24;15.23;;;13.77;;
19089;SDS011;9677;50.656;13.064;2023-02-08T00:04:53;14.60;;;13.30;;
19089;SDS011;9677;50.656;13.064;2023-02-08T00:07:21;14.67;;;13.30;;
19089;SDS011;9677;50.656;13.064;2023-02-08T00:09:51;15.00;;;13.70;;
19089;SDS011;9677;50.656;13.064;2023-02-08T00:12:20;15.07;;;13.67;;
19089;SDS011;9677;50.656;13.064;2023-02-08T00:14:49;14.57;;;13.27;;
19089;SDS011;9677;50.656;13.064;2023-02-08T00:17:19;15.07;;;13.77;;
19089;SDS011;9677;50.656;13.064;2023-02-08T00:19:48;14.37;;;13.17;;
19089;SDS011;9677;50.656;13.064;2023-02-08T00:22:17;16.30;;;14.70;;
19089;SDS011;9677;50.656;13.064;2023-02-08T00:24:46;14.60;;;13.27;;
19089;SDS011;9677;50.656;13.064;2023-02-08T00:27:17;15.07;;;13.77;;
19089;SDS011;9677;50.656;13.064;2023-02-08T00:29:49;14.00;;;12.80;;
19089;SDS011;9677;50.656;13.064;2023-02-08T00:32:18;15.17;;;13.50;;
19089;SDS011;9677;50.656;13.064;2023-02-08T00:34:48;14.50;;;13.20;;
19089;SDS011;9677;50.656;13.064;2023-02-08T00:37:18;14.80;;;13.50;;
19089;SDS011;9677;50.656;13.064;2023-02-08T00:39:48;14.47;;;13.00;;
19089;SDS011;9677;50.656;13.064;2023-02-08T00:42:17;15.00;;;13.60;;
19089;SDS011;9677;50.656;13.064;2023-02-08T00:44:47;14.37;;;13.00;;
19089;SDS011;9677;50.656;13.064;2023-02-08T00:47:17;15.00;;;13.70;;
19089;SDS011;9677;50.656;13.064;2023-02-08T00:49:46;14.43;;;12.80;;
19089;SDS011;9677;50.656;13.064;2023-02-08T00:52:15;14.40;;;13.10;;
19089;SDS011;9677;50.656;13.064;2023-02-08T00:54:46;14.43;;;13.23;;
19089;SDS011;9677;50.656;13.064;2023-02-08T00:57:15;14.37;;;13.07;;
19089;SDS011;9677;50.656;13.064;2023-02-08T00:59:44;14.90;;;13.70;;
19089;SDS011;9677;50.656;13.064;2023-02-08T01:02:14;14.17;;;12.97;;
19089;SDS011;9677;50.656;13.064;2023-02-08T01:04:45;14.13;;;12.93;;
19089;SDS011;9677;50.656;13.064;2023-02-08T01:07:14;14.63;;;13.33;;
19089;SDS011;9677;50.656;13.064;2023-02-08T01:09:43;14.63;;;13.43;;
19089;SDS011;9677;50.656;13.064;2023-02-08T01:12:12;15.27;;;13.87;;
19089;SDS011;9677;50.656;13.064;2023-02-08T01:14:41;14.43;;;13.13;;
19089;SDS011;9677;50.656;13.064;2023-02-08T01:17:10;13.80;;;12.60;;
19089;SDS011;9677;50.656;13.064;2023-02-08T01:19:39;14.43;;;13.10;;
19089;SDS011;9677;50.656;13.064;2023-02-08T01:22:09;14.57;;;13.17;;
19089;SDS011;9677;50.656;13.064;2023-02-08T01:24:38;14.00;;;12.80;;
19089;SDS011;9677;50.656;13.064;2023-02-08T01:27:08;13.77;;;12.57;;
19089;SDS011;9677;50.656;13.064;2023-02-08T01:29:38;14.40;;;13.20;;
19089;SDS011;9677;50.656;13.064;2023-02-08T01:32:09;14.57;;;13.27;;
19089;SDS011;9677;50.656;13.064;2023-02-08T01:34:41;15.00;;;13.40;;
19089;SDS011;9677;50.656;13.064;2023-02-08T01:37:11;14.87;;;13.57;;
19089;SDS011;9677;50.656;13.064;2023-02-08T01:39:41;14.20;;;13.00;;
19089;SDS011;9677;50.656;13.064;2023-02-08T01:42:12;14.80;;;13.50;;
19089;SDS011;9677;50.656;13.064;2023-02-08T01:47:52;14.50;;;13.17;;
19089;SDS011;9677;50.656;13.064;2023-02-08T01:50:32;14.10;;;12.90;;
19089;SDS011;9677;50.656;13.064;2023-02-08T01:53:11;13.73;;;12.63;;
19089;SDS011;9677;50.656;13.064;2023-02-08T01:55:43;14.17;;;13.03;;
19089;SDS011;9677;50.656;13.064;2023-02-08T01:58:16;14.00;;;12.80;;
19089;SDS011;9677;50.656;13.064;2023-02-08T02:00:47;15.00;;;13.60;;
19089;SDS011;9677;50.656;13.064;2023-02-08T02:03:17;14.10;;;12.90;;
19089;SDS011;9677;50.656;13.064;2023-02-08T02:05:50;15.87;;;14.40;;
19089;SDS011;9677;50.656;13.064;2023-02-08T02:08:25;14.47;;;13.07;;
19089;SDS011;9677;50.656;13.064;2023-02-08T02:10:55;14.20;;;13.00;;
19089;SDS011;9677;50.656;13.064;2023-02-08T02:13:25;14.00;;;12.83;;
19089;SDS011;9677;50.656;13.064;2023-02-08T02:15:58;14.57;;;13.37;;
19089;SDS011;9677;50.656;13.064;2023-02-08T02:18:30;14.27;;;13.07;;
19089;SDS011;9677;50.656;13.064;2023-02-08T02:21:05;14.33;;;13.00;;
19089;SDS011;9677;50.656;13.064;2023-02-08T02:24:13;15.13;;;13.83;;
19089;SDS011;9677;50.656;13.064;2023-02-08T02:27:35;14.53;;;13.17;;
19089;SDS011;9677;50.656;13.064;2023-02-08T02:30:45;14.53;;;13.23;;
19089;SDS011;9677;50.656;13.064;2023-02-08T02:34:01;13.90;;;12.70;;
19089;SDS011;9677;50.656;13.064;2023-02-08T02:36:38;14.13;;;12.93;;
19089;SDS011;9677;50.656;13.064;2023-02-08T02:39:17;14.37;;;13.03;;
19089;SDS011;9677;50.656;13.064;2023-02-08T02:41:55;14.40;;;13.20;;
19089;SDS011;9677;50.656;13.064;2023-02-08T02:44:51;14.67;;;13.47;;
19089;SDS011;9677;50.656;13.064;2023-02-08T02:47:35;14.07;;;12.87;;
19089;SDS011;9677;50.656;13.064;2023-02-08T02:50:11;14.53;;;13.23;;
19089;SDS011;9677;50.656;13.064;2023-02-08T02:52:53;14.07;;;12.90;;
19089;SDS011;9677;50.656;13.064;2023-02-08T02:55:31;14.53;;;13.17;;
19089;SDS011;9677;50.656;13.064;2023-02-08T02:58:08;14.87;;;13.50;;
19089;SDS011;9677;50.656;13.064;2023-02-08T03:00:39;14.83;;;13.53;;
19089;SDS011;9677;50.656;13.064;2023-02-08T03:03:15;14.40;;;13.20;;
19089;SDS011;9677;50.656;13.064;2023-02-08T03:05:50;14.97;;;13.57;;
19089;SDS011;9677;50.656;13.064;2023-02-08T03:08:29;14.73;;;13.43;;
19089;SDS011;9677;50.656;13.064;2023-02-08T03:11:27;15.03;;;13.70;;
19089;SDS011;9677;50.656;13.064;2023-02-08T03:14:02;14.63;;;13.33;;
19089;SDS011;9677;50.656;13.064;2023-02-08T03:16:59;14.83;;;13.63;;
19089;SDS011;9677;50.656;13.064;2023-02-08T03:19:42;14.70;;;13.40;;
19089;SDS011;9677;50.656;13.064;2023-02-08T03:22:21;14.27;;;13.07;;
19089;SDS011;9677;50.656;13.064;2023-02-08T03:24:58;14.77;;;13.47;;
19089;SDS011;9677;50.656;13.064;2023-02-08T03:27:38;13.70;;;12.60;;
19089;SDS011;9677;50.656;13.064;2023-02-08T03:30:17;14.30;;;13.00;;
19089;SDS011;9677;50.656;13.064;2023-02-08T03:32:55;14.27;;;13.07;;
19089;SDS011;9677;50.656;13.064;2023-02-08T03:35:33;13.83;;;12.63;;
19089;SDS011;9677;50.656;13.064;2023-02-08T03:38:07;14.17;;;12.87;;
19089;SDS011;9677;50.656;13.064;2023-02-08T03:40:43;13.50;;;12.40;;
19089;SDS011;9677;50.656;13.064;2023-02-08T03:43:17;14.00;;;12.90;;
19089;SDS011;9677;50.656;13.064;2023-02-08T03:45:53;13.93;;;12.80;;
19089;SDS011;9677;50.656;13.064;2023-02-08T03:48:29;13.93;;;12.83;;
19089;SDS011;9677;50.656;13.064;2023-02-08T03:51:01;13.30;;;12.20;;
19089;SDS011;9677;50.656;13.064;2023-02-08T03:53:31;14.80;;;13.57;;
19089;SDS011;9677;50.656;13.064;2023-02-08T03:56:08;13.70;;;12.50;;
19089;SDS011;9677;50.656;13.064;2023-02-08T03:58:44;13.73;;;12.63;;
19089;SDS011;9677;50.656;13.064;2023-02-08T04:01:21;13.03;;;12.03;;
19089;SDS011;9677;50.656;13.064;2023-02-08T04:03:56;15.70;;;12.93;;
19089;SDS011;9677;50.656;13.064;2023-02-08T04:06:29;13.40;;;12.30;;
19089;SDS011;9677;50.656;13.064;2023-02-08T04:08:59;14.80;;;13.53;;
19089;SDS011;9677;50.656;13.064;2023-02-08T04:11:28;14.03;;;12.93;;
19089;SDS011;9677;50.656;13.064;2023-02-08T04:13:58;13.70;;;12.60;;
19089;SDS011;9677;50.656;13.064;2023-02-08T04:16:28;13.90;;;12.70;;
19089;SDS011;9677;50.656;13.064;2023-02-08T04:18:58;14.27;;;13.13;;
19089;SDS011;9677;50.656;13.064;2023-02-08T04:21:29;13.97;;;12.87;;
19089;SDS011;9677;50.656;13.064;2023-02-08T04:23:59;14.37;;;13.17;;
19089;SDS011;9677;50.656;13.064;2023-02-08T04:26:29;13.93;;;12.70;;
19089;SDS011;9677;50.656;13.064;2023-02-08T04:28:58;14.17;;;12.97;;
19089;SDS011;9677;50.656;13.064;2023-02-08T04:31:28;14.40;;;13.20;;
19089;SDS011;9677;50.656;13.064;2023-02-08T04:33:58;13.57;;;12.47;;
19089;SDS011;9677;50.656;13.064;2023-02-08T04:36:28;13.50;;;12.40;;
19089;SDS011;9677;50.656;13.064;2023-02-08T04:38:58;14.87;;;13.57;;
19089;SDS011;9677;50.656;13.064;2023-02-08T04:41:26;13.83;;;12.70;;
19089;SDS011;9677;50.656;13.064;2023-02-08T04:43:56;14.43;;;13.23;;
19089;SDS011;9677;50.656;13.064;2023-02-08T04:46:24;14.30;;;13.00;;
19089;SDS011;9677;50.656;13.064;2023-02-08T04:48:53;15.30;;;14.00;;
19089;SDS011;9677;50.656;13.064;2023-02-08T04:51:24;13.90;;;12.70;;
19089;SDS011;9677;50.656;13.064;2023-02-08T04:53:54;13.60;;;12.50;;
19089;SDS011;9677;50.656;13.064;2023-02-08T04:56:23;15.13;;;13.83;;
19089;SDS011;9677;50.656;13.064;2023-02-08T04:58:51;13.60;;;12.50;;
19089;SDS011;9677;50.656;13.064;2023-02-08T05:01:20;14.27;;;13.07;;
19089;SDS011;9677;50.656;13.064;2023-02-08T05:03:49;14.73;;;13.53;;
19089;SDS011;9677;50.656;13.064;2023-02-08T05:06:18;14.60;;;13.40;;
19089;SDS011;9677;50.656;13.064;2023-02-08T05:08:48;14.53;;;13.10;;
19089;SDS011;9677;50.656;13.064;2023-02-08T05:11:20;14.27;;;13.07;;
19089;SDS011;9677;50.656;13.064;2023-02-08T05:13:50;14.07;;;12.77;;
19089;SDS011;9677;50.656;13.064;2023-02-08T05:16:19;14.10;;;12.90;;
19089;SDS011;9677;50.656;13.064;2023-02-08T05:18:47;15.00;;;13.80;;
19089;SDS011;9677;50.656;13.064;2023-02-08T05:21:16;15.90;;;14.50;;
19089;SDS011;9677;50.656;13.064;2023-02-08T05:23:45;15.13;;;13.93;;
19089;SDS011;9677;50.656;13.064;2023-02-08T05:26:13;13.80;;;12.60;;
19089;SDS011;9677;50.656;13.064;2023-02-08T05:28:43;14.80;;;13.57;;
19089;SDS011;9677;50.656;13.064;2023-02-08T05:31:13;13.87;;;12.73;;
19089;SDS011;9677;50.656;13.064;2023-02-08T05:33:44;14.60;;;13.40;;
19089;SDS011;9677;50.656;13.064;2023-02-08T05:36:13;13.80;;;12.70;;
19089;SDS011;9677;50.656;13.064;2023-02-08T05:38:42;14.77;;;13.37;;
19089;SDS011;9677;50.656;13.064;2023-02-08T05:41:11;13.87;;;12.67;;
19089;SDS011;9677;50.656;13.064;2023-02-08T05:43:39;15.03;;;13.60;;
19089;SDS011;9677;50.656;13.064;2023-02-08T05:46:09;14.60;;;13.40;;
19089;SDS011;9677;50.656;13.064;2023-02-08T05:48:38;14.37;;;13.23;;
19089;SDS011;9677;50.656;13.064;2023-02-08T05:51:06;14.80;;;13.43;;
19089;SDS011;9677;50.656;13.064;2023-02-08T05:53:35;14.27;;;12.87;;
19089;SDS011;9677;50.656;13.064;2023-02-08T05:56:04;14.43;;;13.23;;
19089;SDS011;9677;50.656;13.064;2023-02-08T05:58:33;14.57;;;13.37;;
19089;SDS011;9677;50.656;13.064;2023-02-08T06:01:06;15.10;;;13.90;;
19089;SDS011;9677;50.656;13.064;2023-02-08T06:03:37;14.57;;;13.37;;
19089;SDS011;9677;50.656;13.064;2023-02-08T06:06:06;14.40;;;13.30;;
19089;SDS011;9677;50.656;13.064;2023-02-08T06:08:36;13.73;;;12.60;;
19089;SDS011;9677;50.656;13.064;2023-02-08T06:11:06;14.77;;;13.50;;
19089;SDS011;9677;50.656;13.064;2023-02-08T06:13:35;14.47;;;13.17;;
19089;SDS011;9677;50.656;13.064;2023-02-08T06:16:04;13.90;;;12.80;;
19089;SDS011;9677;50.656;13.064;2023-02-08T06:18:34;14.03;;;12.90;;
19089;SDS011;9677;50.656;13.064;2023-02-08T06:21:04;14.60;;;13.30;;
19089;SDS011;9677;50.656;13.064;2023-02-08T06:23:32;14.47;;;13.27;;
19089;SDS011;9677;50.656;13.064;2023-02-08T06:26:01;14.53;;;13.33;;
19089;SDS011;9677;50.656;13.064;2023-02-08T06:28:30;14.20;;;12.90;;
19089;SDS011;9677;50.656;13.064;2023-02-08T06:30:58;14.93;;;13.63;;
19089;SDS011;9677;50.656;13.064;2023-02-08T06:33:27;14.93;;;13.63;;
19089;SDS011;9677;50.656;13.064;2023-02-08T06:35:55;14.27;;;12.97;;
19089;SDS011;9677;50.656;13.064;2023-02-08T06:38:25;14.40;;;13.10;;
19089;SDS011;9677;50.656;13.064;2023-02-08T06:40:54;13.80;;;12.67;;
19089;SDS011;9677;50.656;13.064;2023-02-08T06:43:22;14.20;;;13.03;;
19089;SDS011;9677;50.656;13.064;2023-02-08T06:45:51;13.97;;;12.83;;
19089;SDS011;9677;50.656;13.064;2023-02-08T06:48:21;14.63;;;13.30;;
19089;SDS011;9677;50.656;13.064;2023-02-08T06:50:50;14.47;;;13.30;;
19089;SDS011;9677;50.656;13.064;2023-02-08T06:53:19;15.27;;;13.97;;
19089;SDS011;9677;50.656;13.064;2023-02-08T06:55:49;14.67;;;13.40;;
19089;SDS011;9677;50.656;13.064;2023-02-08T06:58:18;14.93;;;13.63;;
19089;SDS011;9677;50.656;13.064;2023-02-08T07:00:46;15.07;;;13.77;;
19089;SDS011;9677;50.656;13.064;2023-02-08T07:03:15;14.70;;;13.50;;
19089;SDS011;9677;50.656;13.064;2023-02-08T07:05:43;13.80;;;12.70;;
19089;SDS011;9677;50.656;13.064;2023-02-08T07:08:29;14.03;;;12.90;;
19089;SDS011;9677;50.656;13.064;2023-02-08T07:10:59;13.80;;;12.60;;
19089;SDS011;9677;50.656;13.064;2023-02-08T07:13:34;14.43;;;13.23;;
19089;SDS011;9677;50.656;13.064;2023-02-08T07:16:03;14.50;;;13.30;;
19089;SDS011;9677;50.656;13.064;2023-02-08T07:18:33;14.37;;;13.07;;
19089;SDS011;9677;50.656;13.064;2023-02-08T07:21:02;14.33;;;13.03;;
19089;SDS011;9677;50.656;13.064;2023-02-08T07:23:31;14.00;;;12.90;;
19089;SDS011;9677;50.656;13.064;2023-02-08T07:26:01;15.10;;;13.80;;
19089;SDS011;9677;50.656;13.064;2023-02-08T07:28:32;14.40;;;13.10;;
19089;SDS011;9677;50.656;13.064;2023-02-08T07:31:03;14.50;;;13.30;;
19089;SDS011;9677;50.656;13.064;2023-02-08T07:33:33;15.47;;;14.17;;
19089;SDS011;9677;50.656;13.064;2023-02-08T07:36:01;15.83;;;14.43;;
19089;SDS011;9677;50.656;13.064;2023-02-08T07:38:31;14.93;;;13.53;;
19089;SDS011;9677;50.656;13.064;2023-02-08T07:41:02;14.60;;;13.40;;
19089;SDS011;9677;50.656;13.064;2023-02-08T07:43:33;15.87;;;14.57;;
19089;SDS011;9677;50.656;13.064;2023-02-08T07:46:04;15.57;;;14.07;;
19089;SDS011;9677;50.656;13.064;2023-02-08T07:48:34;15.87;;;14.47;;
19089;SDS011;9677;50.656;13.064;2023-02-08T07:51:05;15.43;;;13.97;;
19089;SDS011;9677;50.656;13.064;2023-02-08T07:53:34;15.50;;;14.10;;
19089;SDS011;9677;50.656;13.064;2023-02-08T07:56:04;15.13;;;13.77;;
19089;SDS011;9677;50.656;13.064;2023-02-08T07:58:35;16.33;;;14.73;;
19089;SDS011;9677;50.656;13.064;2023-02-08T08:01:04;14.80;;;13.40;;
19089;SDS011;9677;50.656;13.064;2023-02-08T08:03:48;15.13;;;13.83;;
19089;SDS011;9677;50.656;13.064;2023-02-08T08:06:16;14.87;;;13.53;;
19089;SDS011;9677;50.656;13.064;2023-02-08T08:08:45;16.43;;;14.93;;
19089;SDS011;9677;50.656;13.064;2023-02-08T08:11:18;15.40;;;14.10;;
19089;SDS011;9677;50.656;13.064;2023-02-08T08:13:47;15.07;;;13.77;;
19089;SDS011;9677;50.656;13.064;2023-02-08T08:16:16;15.73;;;14.33;;
19089;SDS011;9677;50.656;13.064;2023-02-08T08:18:46;15.70;;;14.20;;
19089;SDS011;9677;50.656;13.064;2023-02-08T08:21:14;15.60;;;14.30;;
19089;SDS011;9677;50.656;13.064;2023-02-08T08:23:43;14.93;;;13.63;;
19089;SDS011;9677;50.656;13.064;2023-02-08T08:26:12;14.20;;;12.90;;
19089;SDS011;9677;50.656;13.064;2023-02-08T08:28:44;15.93;;;14.53;;
19089;SDS011;9677;50.656;13.064;2023-02-08T08:31:15;15.43;;;13.90;;
19089;SDS011;9677;50.656;13.064;2023-02-08T08:33:47;17.13;;;14.00;;
19089;SDS011;9677;50.656;13.064;2023-02-08T08:36:15;15.63;;;14.27;;
19089;SDS011;9677;50.656;13.064;2023-02-08T08:38:44;15.97;;;14.57;;
19089;SDS011;9677;50.656;13.064;2023-02-08T08:41:13;15.17;;;13.77;;
19089;SDS011;9677;50.656;13.064;2023-02-08T08:43:44;16.50;;;14.90;;
19089;SDS011;9677;50.656;13.064;2023-02-08T08:46:13;15.80;;;14.40;;
19089;SDS011;9677;50.656;13.064;2023-02-08T08:48:42;16.47;;;14.93;;
19089;SDS011;9677;50.656;13.064;2023-02-08T08:51:11;16.43;;;14.93;;
19089;SDS011;9677;50.656;13.064;2023-02-08T08:53:40;15.93;;;14.43;;
19089;SDS011;9677;50.656;13.064;2023-02-08T08:56:08;16.63;;;14.93;;
19089;SDS011;9677;50.656;13.064;2023-02-08T08:58:38;15.40;;;14.00;;
19089;SDS011;9677;50.656;13.064;2023-02-08T09:01:09;16.10;;;14.60;;
19089;SDS011;9677;50.656;13.064;2023-02-08T09:03:39;17.30;;;15.70;;
19089;SDS011;9677;50.656;13.064;2023-02-08T09:06:07;17.23;;;15.27;;
19089;SDS011;9677;50.656;13.064;2023-02-08T09:08:36;16.40;;;14.70;;
19089;SDS011;9677;50.656;13.064;2023-02-08T09:11:04;16.93;;;15.23;;
19089;SDS011;9677;50.656;13.064;2023-02-08T09:13:34;17.30;;;15.60;;
19089;SDS011;9677;50.656;13.064;2023-02-08T09:16:05;18.03;;;16.30;;
19089;SDS011;9677;50.656;13.064;2023-02-08T09:18:36;21.37;;;16.80;;
19089;SDS011;9677;50.656;13.064;2023-02-08T09:21:05;17.60;;;15.80;;
19089;SDS011;9677;50.656;13.064;2023-02-08T09:23:34;18.53;;;16.63;;
19089;SDS011;9677;50.656;13.064;2023-02-08T09:26:03;19.17;;;17.00;;
19089;SDS011;9677;50.656;13.064;2023-02-08T09:28:34;21.40;;;17.60;;
19089;SDS011;9677;50.656;13.064;2023-02-08T09:31:07;24.73;;;17.40;;
19089;SDS011;9677;50.656;13.064;2023-02-08T09:33:36;19.90;;;17.27;;
19089;SDS011;9677;50.656;13.064;2023-02-08T09:36:05;20.57;;;16.97;;
19089;SDS011;9677;50.656;13.064;2023-02-08T09:38:35;20.47;;;17.60;;
19089;SDS011;9677;50.656;13.064;2023-02-08T09:41:07;21.60;;;18.30;;
19089;SDS011;9677;50.656;13.064;2023-02-08T09:43:53;22.13;;;18.30;;
19089;SDS011;9677;50.656;13.064;2023-02-08T09:46:38;27.17;;;20.80;;
19089;SDS011;9677;50.656;13.064;2023-02-08T09:49:13;25.60;;;20.27;;
19089;SDS011;9677;50.656;13.064;2023-02-08T09:51:49;27.00;;;20.17;;
19089;SDS011;9677;50.656;13.064;2023-02-08T09:54:22;25.27;;;20.10;;
19089;SDS011;9677;50.656;13.064;2023-02-08T09:56:56;30.37;;;20.30;;
19089;SDS011;9677;50.656;13.064;2023-02-08T09:59:27;23.57;;;19.37;;
19089;SDS011;9677;50.656;13.064;2023-02-08T10:02:01;21.83;;;18.03;;
19089;SDS011;9677;50.656;13.064;2023-02-08T10:04:47;23.77;;;19.47;;
19089;SDS011;9677;50.656;13.064;2023-02-08T10:07:24;22.00;;;18.43;;
19089;SDS011;9677;50.656;13.064;2023-02-08T10:09:53;25.20;;;20.30;;
19089;SDS011;9677;50.656;13.064;2023-02-08T10:12:29;25.17;;;19.40;;
19089;SDS011;9677;50.656;13.064;2023-02-08T10:15:08;25.77;;;19.43;;
19089;SDS011;9677;50.656;13.064;2023-02-08T10:21:00;26.13;;;19.73;;
19089;SDS011;9677;50.656;13.064;2023-02-08T10:23:46;25.20;;;20.37;;
19089;SDS011;9677;50.656;13.064;2023-02-08T10:26:34;27.20;;;20.00;;
19089;SDS011;9677;50.656;13.064;2023-02-08T10:29:21;25.17;;;19.17;;
19089;SDS011;9677;50.656;13.064;2023-02-08T10:32:21;29.83;;;21.13;;
19089;SDS011;9677;50.656;13.064;2023-02-08T10:35:03;21.10;;;18.50;;
19089;SDS011;9677;50.656;13.064;2023-02-08T10:37:38;23.10;;;19.23;;
19089;SDS011;9677;50.656;13.064;2023-02-08T10:40:18;26.87;;;19.57;;
19089;SDS011;9677;50.656;13.064;2023-02-08T10:42:59;24.77;;;19.50;;
19089;SDS011;9677;50.656;13.064;2023-02-08T10:45:43;26.20;;;19.53;;
19089;SDS011;9677;50.656;13.064;2023-02-08T10:48:22;23.43;;;18.93;;
19089;SDS011;9677;50.656;13.064;2023-02-08T10:51:03;19.87;;;16.80;;
19089;SDS011;9677;50.656;13.064;2023-02-08T10:53:43;21.10;;;17.50;;
19089;SDS011;9677;50.656;13.064;2023-02-08T10:56:20;21.83;;;18.67;;
19089;SDS011;9677;50.656;13.064;2023-02-08T10:59:05;19.57;;;17.17;;
19089;SDS011;9677;50.656;13.064;2023-02-08T11:01:42;23.40;;;18.87;;
19089;SDS011;9677;50.656;13.064;2023-02-08T11:04:14;20.87;;;17.20;;
19089;SDS011;9677;50.656;13.064;2023-02-08T11:06:46;20.80;;;18.30;;
19089;SDS011;9677;50.656;13.064;2023-02-08T11:09:24;19.83;;;17.40;;
19089;SDS011;9677;50.656;13.064;2023-02-08T11:11:54;18.03;;;15.80;;
19089;SDS011;9677;50.656;13.064;2023-02-08T11:14:26;18.03;;;15.70;;
19089;SDS011;9677;50.656;13.064;2023-02-08T11:17:23;21.27;;;17.13;;
19089;SDS011;9677;50.656;13.064;2023-02-08T11:19:55;20.70;;;17.63;;
19089;SDS011;9677;50.656;13.064;2023-02-08T11:22:26;19.70;;;16.83;;
19089;SDS011;9677;50.656;13.064;2023-02-08T11:24:58;19.37;;;16.67;;
19089;SDS011;9677;50.656;13.064;2023-02-08T11:27:30;21.73;;;17.10;;
19089;SDS011;9677;50.656;13.064;2023-02-08T11:30:17;19.70;;;16.27;;
19089;SDS011;9677;50.656;13.064;2023-02-08T11:33:07;21.00;;;16.67;;
19089;SDS011;9677;50.656;13.064;2023-02-08T11:35:55;20.73;;;16.87;;
19089;SDS011;9677;50.656;13.064;2023-02-08T11:38:39;19.23;;;16.40;;
19089;SDS011;9677;50.656;13.064;2023-02-08T11:41:14;19.10;;;16.30;;
19089;SDS011;9677;50.656;13.064;2023-02-08T11:43:51;18.07;;;15.73;;
19089;SDS011;9677;50.656;13.064;2023-02-08T11:46:25;18.37;;;15.53;;
19089;SDS011;9677;50.656;13.064;2023-02-08T11:48:56;54.07;;;17.50;;
19089;SDS011;9677;50.656;13.064;2023-02-08T11:51:26;17.80;;;15.50;;
19089;SDS011;9677;50.656;13.064;2023-02-08T11:53:58;18.17;;;14.90;;
19089;SDS011;9677;50.656;13.064;2023-02-08T11:56:28;18.80;;;15.07;;
19089;SDS011;9677;50.656;13.064;2023-02-08T11:58:59;16.87;;;15.17;;
19089;SDS011;9677;50.656;13.064;2023-02-08T12:01:33;33.00;;;14.80;;
19089;SDS011;9677;50.656;13.064;2023-02-08T12:04:04;37.03;;;16.60;;
19089;SDS011;9677;50.656;13.064;2023-02-08T12:06:51;19.90;;;15.80;;
19089;SDS011;9677;50.656;13.064;2023-02-08T12:09:51;20.37;;;15.57;;
19089;SDS011;9677;50.656;13.064;2023-02-08T12:12:42;26.87;;;15.47;;
19089;SDS011;9677;50.656;13.064;2023-02-08T12:15:37;17.10;;;14.73;;
19089;SDS011;9677;50.656;13.064;2023-02-08T12:18:32;17.33;;;15.53;;
19089;SDS011;9677;50.656;13.064;2023-02-08T12:21:27;16.60;;;14.80;;
19089;SDS011;9677;50.656;13.064;2023-02-08T12:24:05;18.00;;;15.90;;
19089;SDS011;9677;50.656;13.064;2023-02-08T12:26:47;20.20;;;15.90;;
19089;SDS011;9677;50.656;13.064;2023-02-08T12:29:32;19.93;;;16.73;;
19089;SDS011;9677;50.656;13.064;2023-02-08T12:32:17;28.90;;;16.00;;
19089;SDS011;9677;50.656;13.064;2023-02-08T12:35:03;17.60;;;15.70;;
19089;SDS011;9677;50.656;13.064;2023-02-08T12:38:10;23.30;;;14.87;;
19089;SDS011;9677;50.656;13.064;2023-02-08T12:41:07;20.50;;;15.30;;
19089;SDS011;9677;50.656;13.064;2023-02-08T12:43:46;19.97;;;15.30;;
19089;SDS011;9677;50.656;13.064;2023-02-08T12:46:30;33.40;;;15.77;;
19089;SDS011;9677;50.656;13.064;2023-02-08T12:49:19;24.10;;;16.20;;
19089;SDS011;9677;50.656;13.064;2023-02-08T12:52:13;21.87;;;15.20;;
19089;SDS011;9677;50.656;13.064;2023-02-08T12:54:53;18.30;;;15.80;;
19089;SDS011;9677;50.656;13.064;2023-02-08T12:57:27;37.50;;;16.43;;
19089;SDS011;9677;50.656;13.064;2023-02-08T12:59:59;26.10;;;15.87;;
19089;SDS011;9677;50.656;13.064;2023-02-08T13:02:34;19.30;;;15.13;;
19089;SDS011;9677;50.656;13.064;2023-02-08T13:05:14;18.70;;;15.37;;
19089;SDS011;9677;50.656;13.064;2023-02-08T13:07:46;19.37;;;15.13;;
19089;SDS011;9677;50.656;13.064;2023-02-08T13:10:19;18.57;;;15.60;;
19089;SDS011;9677;50.656;13.064;2023-02-08T13:12:54;20.43;;;15.27;;
19089;SDS011;9677;50.656;13.064;2023-02-08T13:15:28;21.30;;;14.63;;
19089;SDS011;9677;50.656;13.064;2023-02-08T13:18:09;20.77;;;15.70;;
19089;SDS011;9677;50.656;13.064;2023-02-08T13:20:44;21.50;;;16.90;;
19089;SDS011;9677;50.656;13.064;2023-02-08T13:23:17;18.00;;;15.70;;
19089;SDS011;9677;50.656;13.064;2023-02-08T13:25:52;20.50;;;15.80;;
19089;SDS011;9677;50.656;13.064;2023-02-08T13:28:24;18.27;;;15.33;;
19089;SDS011;9677;50.656;13.064;2023-02-08T13:30:57;27.87;;;16.40;;
19089;SDS011;9677;50.656;13.064;2023-02-08T13:33:33;22.93;;;16.47;;
19089;SDS011;9677;50.656;13.064;2023-02-08T13:36:27;21.27;;;16.40;;
19089;SDS011;9677;50.656;13.064;2023-02-08T13:38:58;23.90;;;16.53;;
19089;SDS011;9677;50.656;13.064;2023-02-08T13:41:29;20.47;;;14.83;;
19089;SDS011;9677;50.656;13.064;2023-02-08T13:43:59;24.07;;;15.07;;
19089;SDS011;9677;50.656;13.064;2023-02-08T13:46:35;31.20;;;16.43;;
19089;SDS011;9677;50.656;13.064;2023-02-08T14:01:30;27.23;;;16.70;;
19089;SDS011;9677;50.656;13.064;2023-02-08T14:04:16;17.53;;;15.33;;
19089;SDS011;9677;50.656;13.064;2023-02-08T14:07:00;20.07;;;15.90;;
19089;SDS011;9677;50.656;13.064;2023-02-08T14:09:40;25.50;;;17.17;;
19089;SDS011;9677;50.656;13.064;2023-02-08T14:12:22;23.00;;;16.00;;
19089;SDS011;9677;50.656;13.064;2023-02-08T14:15:16;18.10;;;15.93;;
19089;SDS011;9677;50.656;13.064;2023-02-08T14:17:56;33.30;;;17.40;;
19089;SDS011;9677;50.656;13.064;2023-02-08T14:20:29;46.17;;;25.23;;
19089;SDS011;9677;50.656;13.064;2023-02-08T14:23:02;74.03;;;36.37;;
19089;SDS011;9677;50.656;13.064;2023-02-08T14:25:38;66.23;;;32.10;;
19089;SDS011;9677;50.656;13.064;2023-02-08T14:28:24;48.53;;;28.40;;
19089;SDS011;9677;50.656;13.064;2023-02-08T14:30:57;37.83;;;22.30;;
19089;SDS011;9677;50.656;13.064;2023-02-08T14:33:33;42.20;;;21.40;;
19089;SDS011;9677;50.656;13.064;2023-02-08T14:36:06;25.20;;;18.47;;
19089;SDS011;9677;50.656;13.064;2023-02-08T14:38:55;26.20;;;18.30;;
19089;SDS011;9677;50.656;13.064;2023-02-08T14:41:41;23.10;;;17.20;;
19089;SDS011;9677;50.656;13.064;2023-02-08T14:50:21;21.13;;;16.17;;
19089;SDS011;9677;50.656;13.064;2023-02-08T14:53:01;22.87;;;16.33;;
19089;SDS011;9677;50.656;13.064;2023-02-08T14:55:39;29.03;;;17.20;;
19089;SDS011;9677;50.656;13.064;2023-02-08T14:58:13;21.90;;;15.50;;
19089;SDS011;9677;50.656;13.064;2023-02-08T15:00:51;22.17;;;15.90;;
19089;SDS011;9677;50.656;13.064;2023-02-08T15:03:23;19.47;;;15.97;;
19089;SDS011;9677;50.656;13.064;2023-02-08T15:06:01;18.47;;;16.57;;
19089;SDS011;9677;50.656;13.064;2023-02-08T15:09:04;19.00;;;16.23;;
19089;SDS011;9677;50.656;13.064;2023-02-08T15:11:41;19.73;;;15.10;;
19089;SDS011;9677;50.656;13.064;2023-02-08T15:17:53;18.13;;;15.67;;
19089;SDS011;9677;50.656;13.064;2023-02-08T15:20:23;23.23;;;15.83;;
19089;SDS011;9677;50.656;13.064;2023-02-08T15:22:57;16.80;;;15.00;;
19089;SDS011;9677;50.656;13.064;2023-02-08T15:25:29;16.37;;;14.67;;
19089;SDS011;9677;50.656;13.064;2023-02-08T15:27:59;17.30;;;15.43;;
19089;SDS011;9677;50.656;13.064;2023-02-08T15:30:31;27.47;;;16.57;;
19089;SDS011;9677;50.656;13.064;2023-02-08T15:33:02;19.73;;;15.60;;